createdAt,value
2022-08-14T00:02:13.970Z,16.42
2022-08-14T00:04:44.899Z,17.35
2022-08-14T00:07:13.984Z,16.55
2022-08-14T00:10:01.626Z,16.30
2022-08-14T00:12:48.189Z,16.52
2022-08-14T00:15:29.922Z,17.02
2022-08-14T00:18:06.664Z,16.80
2022-08-14T00:20:43.268Z,16.33
2022-08-14T00:23:16.631Z,16.52
2022-08-14T00:25:58.723Z,17.33
2022-08-14T00:28:36.044Z,16.70
2022-08-14T00:31:05.716Z,16.52
2022-08-14T00:33:52.532Z,16.10
2022-08-14T00:36:35.716Z,16.13
2022-08-14T00:39:18.295Z,15.80
2022-08-14T00:41:46.964Z,16.85
2022-08-14T00:44:14.824Z,16.38
2022-08-14T00:46:49.562Z,16.20
2022-08-14T00:49:18.099Z,16.58
2022-08-14T00:51:48.351Z,16.55
2022-08-14T00:54:22.096Z,16.50
2022-08-14T00:56:55.211Z,16.92
2022-08-14T00:59:25.074Z,16.42
2022-08-14T01:01:54.483Z,16.33
2022-08-14T01:04:38.258Z,16.30
2022-08-14T01:07:10.775Z,16.10
2022-08-14T01:09:39.227Z,16.17
2022-08-14T01:12:07.732Z,15.85
2022-08-14T01:14:35.785Z,15.95
2022-08-14T01:17:03.943Z,15.88
2022-08-14T01:19:49.950Z,16.13
2022-08-14T01:22:21.002Z,17.27
2022-08-14T01:24:54.234Z,15.68
2022-08-14T01:27:24.126Z,16.98
2022-08-14T01:30:01.275Z,16.15
2022-08-14T01:32:35.351Z,16.92
2022-08-14T01:36:04.942Z,16.23
2022-08-14T01:38:05.801Z,16.10
2022-08-14T01:40:41.148Z,17.02
2022-08-14T01:43:14.550Z,16.75
2022-08-14T01:45:49.179Z,16.13
2022-08-14T01:48:33.574Z,16.17
2022-08-14T01:51:05.739Z,16.42
2022-08-14T01:53:51.377Z,16.70
2022-08-14T01:56:37.404Z,16.73
2022-08-14T01:59:10.195Z,16.45
2022-08-14T02:01:51.312Z,16.08
2022-08-14T02:04:40.639Z,16.55
2022-08-14T02:07:34.898Z,16.15
2022-08-14T02:10:07.020Z,16.70
2022-08-14T02:12:34.722Z,16.23
2022-08-14T02:15:02.218Z,16.90
2022-08-14T02:17:30.683Z,15.95
2022-08-14T02:19:58.523Z,16.83
2022-08-14T02:22:29.222Z,16.92
2022-08-14T02:28:24.684Z,17.08
2022-08-14T02:30:16.670Z,15.93
2022-08-14T02:32:44.540Z,16.77
2022-08-14T02:35:18.882Z,17.17
2022-08-14T02:37:49.381Z,17.30
2022-08-14T02:40:19.428Z,17.52
2022-08-14T02:42:55.365Z,17.45
2022-08-14T02:45:33.641Z,17.88
2022-08-14T02:50:57.839Z,18.27
2022-08-14T02:53:31.593Z,18.75
2022-08-14T02:56:03.344Z,18.90
2022-08-14T02:58:47.606Z,18.70
2022-08-14T03:01:17.039Z,18.42
2022-08-14T03:03:51.198Z,18.92
2022-08-14T03:06:35.079Z,19.45
2022-08-14T03:11:44.786Z,19.98
2022-08-14T03:14:15.459Z,19.73
2022-08-14T03:16:49.417Z,19.92
2022-08-14T03:19:19.768Z,19.27
2022-08-14T03:21:47.046Z,19.48
2022-08-14T03:24:23.316Z,20.33
2022-08-14T03:26:57.297Z,20.05
2022-08-14T03:29:26.535Z,20.25
2022-08-14T03:31:54.195Z,20.30
2022-08-14T03:34:24.779Z,20.75
2022-08-14T03:37:38.520Z,20.65
2022-08-14T03:40:00.414Z,20.70
2022-08-14T03:42:35.997Z,20.63
2022-08-14T03:45:26.478Z,21.38
2022-08-14T03:47:58.381Z,21.10
2022-08-14T03:50:31.543Z,21.02
2022-08-14T03:53:03.521Z,20.30
2022-08-14T03:55:31.421Z,20.95
2022-08-14T03:58:00.421Z,20.00
2022-08-14T04:00:43.349Z,20.77
2022-08-14T04:03:14.251Z,20.90
2022-08-14T04:05:48.938Z,20.40
2022-08-14T04:08:29.294Z,21.05
2022-08-14T04:11:01.953Z,20.85
2022-08-14T04:13:34.088Z,20.08
2022-08-14T04:16:31.880Z,20.42
2022-08-14T04:19:00.070Z,20.48
2022-08-14T04:21:39.642Z,20.33
2022-08-14T04:24:07.194Z,20.48
2022-08-14T04:26:41.916Z,19.73
2022-08-14T04:29:15.271Z,20.52
2022-08-14T04:33:10.255Z,19.45
2022-08-14T04:34:30.151Z,19.08
2022-08-14T04:37:22.133Z,20.25
2022-08-14T04:40:12.543Z,20.38
2022-08-14T04:43:14.234Z,20.58
2022-08-14T04:45:51.507Z,19.70
2022-08-14T04:48:38.812Z,20.08
2022-08-14T04:51:13.938Z,19.08
2022-08-14T04:53:45.753Z,19.45
2022-08-14T04:59:09.926Z,18.38
2022-08-14T05:01:45.264Z,19.05
2022-08-14T05:04:20.404Z,19.33
2022-08-14T05:06:53.750Z,18.95
2022-08-14T05:09:28.937Z,18.83
2022-08-14T05:12:23.922Z,18.58
2022-08-14T05:14:54.714Z,19.00
2022-08-14T05:17:32.128Z,19.17
2022-08-14T05:21:04.380Z,19.65
2022-08-14T05:22:59.908Z,18.85
2022-08-14T05:25:30.804Z,19.42
2022-08-14T05:28:12.495Z,20.23
2022-08-14T05:30:43.793Z,20.02
2022-08-14T05:33:12.847Z,21.35
2022-08-14T05:35:42.569Z,21.55
2022-08-14T05:38:30.792Z,21.45
2022-08-14T05:40:59.780Z,22.13
2022-08-14T05:43:40.780Z,22.05
2022-08-14T05:46:11.370Z,21.65
2022-08-14T05:51:10.552Z,22.77
2022-08-14T05:53:37.627Z,22.05
2022-08-14T05:56:09.690Z,22.30
2022-08-14T05:58:40.935Z,22.75
2022-08-14T06:01:09.696Z,22.25
2022-08-14T06:03:37.412Z,22.23
2022-08-14T06:06:07.754Z,22.33
2022-08-14T06:08:41.287Z,22.27
2022-08-14T06:13:45.587Z,22.48
2022-08-14T06:16:17.561Z,22.83
2022-08-14T06:18:52.533Z,23.20
2022-08-14T06:21:22.088Z,22.48
2022-08-14T06:23:50.231Z,22.25
2022-08-14T06:26:20.651Z,22.25
2022-08-14T06:28:52.140Z,21.75
2022-08-14T06:31:20.893Z,21.75
2022-08-14T06:35:11.363Z,21.98
2022-08-14T06:36:39.549Z,21.98
2022-08-14T06:39:10.025Z,22.85
2022-08-14T06:41:57.912Z,22.05
2022-08-14T06:44:30.668Z,21.83
2022-08-14T06:49:27.502Z,21.92
2022-08-14T06:51:57.633Z,22.02
2022-08-14T06:54:31.212Z,21.02
2022-08-14T06:56:59.880Z,20.85
2022-08-14T06:59:27.308Z,20.85
2022-08-14T07:02:13.614Z,20.73
2022-08-14T07:05:05.500Z,20.50
2022-08-14T07:07:40.352Z,19.98
2022-08-14T07:10:17.062Z,20.73
2022-08-14T07:13:01.815Z,20.30
2022-08-14T07:15:33.974Z,20.10
2022-08-14T07:18:08.621Z,20.42
2022-08-14T07:20:36.566Z,20.05
2022-08-14T07:23:08.465Z,21.08
2022-08-14T07:25:38.552Z,19.98
2022-08-14T07:28:20.822Z,19.80
2022-08-14T07:30:50.817Z,19.85
2022-08-14T07:33:24.541Z,19.00
2022-08-14T07:35:59.251Z,19.10
2022-08-14T07:38:35.482Z,18.85
2022-08-14T07:41:11.950Z,18.88
2022-08-14T07:43:47.332Z,18.83
2022-08-14T07:46:21.399Z,19.02
2022-08-14T07:48:57.104Z,18.55
2022-08-14T07:51:24.655Z,18.65
2022-08-14T07:53:56.859Z,18.88
2022-08-14T07:56:44.520Z,18.23
2022-08-14T07:59:12.691Z,18.42
2022-08-14T08:01:48.099Z,18.27
2022-08-14T08:04:25.337Z,18.33
2022-08-14T08:06:55.364Z,18.70
2022-08-14T08:09:31.904Z,18.70
2022-08-14T08:12:05.002Z,18.35
2022-08-14T08:14:55.755Z,18.38
2022-08-14T08:17:23.616Z,19.38
2022-08-14T08:19:51.684Z,18.40
2022-08-14T08:22:21.430Z,18.52
2022-08-14T08:24:50.469Z,19.05
2022-08-14T08:27:21.476Z,18.25
2022-08-14T08:29:51.016Z,18.15
2022-08-14T08:32:18.756Z,17.52
2022-08-14T08:34:48.553Z,19.15
2022-08-14T08:37:16.700Z,18.38
2022-08-14T08:40:01.799Z,18.80
2022-08-14T08:42:31.603Z,18.95
2022-08-14T08:45:11.849Z,18.42
2022-08-14T08:47:42.927Z,18.10
2022-08-14T08:53:03.603Z,18.35
2022-08-14T08:55:35.017Z,18.57
2022-08-14T08:58:12.781Z,18.73
2022-08-14T09:00:54.934Z,18.15
2022-08-14T09:03:30.172Z,18.48
2022-08-14T09:06:02.833Z,18.52
2022-08-14T09:08:33.223Z,18.73
2022-08-14T09:11:19.155Z,18.35
2022-08-14T09:13:50.787Z,18.50
2022-08-14T09:16:23.634Z,18.40
2022-08-14T09:18:53.319Z,18.35
2022-08-14T09:21:24.086Z,18.77
2022-08-14T09:24:29.600Z,17.85
2022-08-14T09:26:43.922Z,17.55
2022-08-14T09:29:22.702Z,18.00
2022-08-14T09:31:57.059Z,17.63
2022-08-14T09:34:58.751Z,18.27
2022-08-14T09:37:43.760Z,17.20
2022-08-14T09:40:22.962Z,17.60
2022-08-14T09:43:03.477Z,17.92
2022-08-14T09:45:53.201Z,18.10
2022-08-14T09:48:30.668Z,17.60
2022-08-14T09:54:19.006Z,17.70
2022-08-14T09:56:56.546Z,17.55
2022-08-14T09:59:28.184Z,17.40
2022-08-14T10:01:59.807Z,17.42
2022-08-14T10:04:34.882Z,17.30
2022-08-14T10:07:05.702Z,17.45
2022-08-14T10:09:35.160Z,17.42
2022-08-14T10:12:04.574Z,17.58
2022-08-14T10:14:36.587Z,17.55
2022-08-14T10:17:07.113Z,17.77
2022-08-14T10:19:37.221Z,17.75
2022-08-14T10:23:13.513Z,17.90
2022-08-14T10:25:00.055Z,18.00
2022-08-14T10:27:28.252Z,17.88
2022-08-14T10:30:00.983Z,17.58
2022-08-14T10:32:38.087Z,17.48
2022-08-14T10:35:14.039Z,17.70
2022-08-14T10:37:52.735Z,17.75
2022-08-14T10:40:38.329Z,18.10
2022-08-14T10:43:31.863Z,18.33
2022-08-14T10:46:21.993Z,17.55
2022-08-14T10:49:04.513Z,17.70
2022-08-14T10:51:35.281Z,17.48
2022-08-14T10:54:17.066Z,17.83
2022-08-14T10:57:13.616Z,17.73
2022-08-14T10:59:53.936Z,17.80
2022-08-14T11:02:45.084Z,17.75
2022-08-14T11:05:18.674Z,17.45
2022-08-14T11:07:56.839Z,17.60
2022-08-14T11:10:27.818Z,18.98
2022-08-14T11:12:58.714Z,18.08
2022-08-14T11:15:27.960Z,18.15
2022-08-14T11:18:01.188Z,18.67
2022-08-14T11:20:30.915Z,18.42
2022-08-14T11:23:01.208Z,18.38
2022-08-14T11:25:43.390Z,18.02
2022-08-14T11:28:19.117Z,18.00
2022-08-14T11:30:53.643Z,18.05
2022-08-14T11:33:29.322Z,18.65
2022-08-14T11:36:01.766Z,18.02
2022-08-14T11:38:40.896Z,17.95
2022-08-14T11:41:14.251Z,18.33
2022-08-14T11:43:57.820Z,17.90
2022-08-14T11:46:30.247Z,17.88
2022-08-14T11:49:05.995Z,18.33
2022-08-14T11:51:50.849Z,17.88
2022-08-14T11:54:34.759Z,18.20
2022-08-14T11:57:02.703Z,18.20
2022-08-14T11:59:33.984Z,17.95
2022-08-14T12:03:01.507Z,18.50
2022-08-14T12:05:04.061Z,18.02
2022-08-14T12:07:32.123Z,18.00
2022-08-14T12:09:59.859Z,18.15
2022-08-14T12:12:35.802Z,18.40
2022-08-14T12:15:07.121Z,17.98
2022-08-14T12:17:47.622Z,18.52
2022-08-14T12:20:32.328Z,18.02
2022-08-14T12:23:02.244Z,18.25
2022-08-14T12:25:34.760Z,18.33
2022-08-14T12:28:08.596Z,18.45
2022-08-14T12:30:43.728Z,19.35
2022-08-14T12:33:34.023Z,18.70
2022-08-14T12:36:05.678Z,18.27
2022-08-14T12:38:37.586Z,18.60
2022-08-14T12:41:20.982Z,18.20
2022-08-14T12:46:43.745Z,18.35
2022-08-14T12:49:17.667Z,18.42
2022-08-14T12:51:57.583Z,18.27
2022-08-14T12:54:27.683Z,18.73
2022-08-14T12:57:04.907Z,17.77
2022-08-14T12:59:37.146Z,18.98
2022-08-14T13:02:25.379Z,18.90
2022-08-14T13:04:56.501Z,18.48
2022-08-14T13:07:26.900Z,18.35
2022-08-14T13:10:00.281Z,18.52
2022-08-14T13:12:32.042Z,18.00
2022-08-14T13:15:09.409Z,18.73
2022-08-14T13:18:05.058Z,18.77
2022-08-14T13:20:34.663Z,18.45
2022-08-14T13:23:03.108Z,17.95
2022-08-14T13:25:30.139Z,18.25
2022-08-14T13:27:59.954Z,18.02
2022-08-14T13:30:27.899Z,18.35
2022-08-14T13:32:58.394Z,17.40
2022-08-14T13:35:26.359Z,17.75
2022-08-14T13:37:54.258Z,17.38
2022-08-14T13:40:26.646Z,17.60
2022-08-14T13:42:55.467Z,17.90
2022-08-14T13:45:56.420Z,17.92
2022-08-14T13:48:19.126Z,17.48
2022-08-14T13:51:03.884Z,17.48
2022-08-14T13:53:35.149Z,17.83
2022-08-14T13:56:06.126Z,17.75
2022-08-14T13:58:35.637Z,18.15
2022-08-14T14:01:04.530Z,17.80
2022-08-14T14:03:35.343Z,17.63
2022-08-14T14:06:03.725Z,17.92
2022-08-14T14:08:43.630Z,17.65
2022-08-14T14:11:15.950Z,17.70
2022-08-14T14:13:45.991Z,17.92
2022-08-14T14:16:26.344Z,18.13
2022-08-14T14:19:09.024Z,18.00
2022-08-14T14:21:40.876Z,17.83
2022-08-14T14:24:11.810Z,17.67
2022-08-14T14:26:46.376Z,16.98
2022-08-14T14:29:14.576Z,17.98
2022-08-14T14:31:46.235Z,17.63
2022-08-14T14:34:20.075Z,17.83
2022-08-14T14:37:03.587Z,17.70
2022-08-14T14:40:50.772Z,17.83
2022-08-14T14:42:32.009Z,18.30
2022-08-14T14:45:12.249Z,18.33
2022-08-14T14:47:39.967Z,17.90
2022-08-14T14:50:11.195Z,19.90
2022-08-14T14:52:40.413Z,17.92
2022-08-14T14:55:09.749Z,18.35
2022-08-14T14:57:37.194Z,17.80
2022-08-14T15:00:12.964Z,17.75
2022-08-14T15:02:49.697Z,18.58
2022-08-14T15:05:20.201Z,18.55
2022-08-14T15:07:51.157Z,18.27
2022-08-14T15:10:26.854Z,18.33
2022-08-14T15:13:04.023Z,18.10
2022-08-14T15:15:37.526Z,17.95
2022-08-14T15:18:36.845Z,18.25
2022-08-14T15:21:02.565Z,18.45
2022-08-14T15:23:43.613Z,18.20
2022-08-14T15:26:31.012Z,17.98
2022-08-14T15:29:02.176Z,18.00
2022-08-14T15:31:32.347Z,17.67
2022-08-14T15:34:44.834Z,18.15
2022-08-14T15:37:10.929Z,18.40
2022-08-14T15:39:41.423Z,18.80
2022-08-14T15:42:14.874Z,18.23
2022-08-14T15:44:58.283Z,18.60
2022-08-14T15:47:31.035Z,18.35
2022-08-14T15:50:05.013Z,19.40
2022-08-14T15:52:37.308Z,19.60
2022-08-14T15:55:08.266Z,18.92
2022-08-14T15:57:36.467Z,19.35
2022-08-14T16:00:40.103Z,18.88
2022-08-14T16:03:15.689Z,19.02
2022-08-14T16:05:46.018Z,19.20
2022-08-14T16:08:26.842Z,18.58
2022-08-14T16:11:03.922Z,19.73
2022-08-14T16:16:47.293Z,19.52
2022-08-14T16:19:10.210Z,19.73
2022-08-14T16:21:40.291Z,19.30
2022-08-14T16:24:27.545Z,18.98
2022-08-14T16:27:00.871Z,18.02
2022-08-14T16:29:30.363Z,19.07
2022-08-14T16:32:01.607Z,18.52
2022-08-14T16:34:46.032Z,18.08
2022-08-14T16:37:16.765Z,18.17
2022-08-14T16:39:44.276Z,18.00
2022-08-14T16:42:39.074Z,17.85
2022-08-14T16:45:00.222Z,18.63
2022-08-14T16:47:32.220Z,18.80
2022-08-14T16:50:08.752Z,17.65
2022-08-14T16:52:44.756Z,17.83
2022-08-14T16:55:29.996Z,17.75
2022-08-14T16:57:59.233Z,18.25
2022-08-14T17:00:28.745Z,17.77
2022-08-14T17:03:08.437Z,18.10
2022-08-14T17:05:43.211Z,17.25
2022-08-14T17:08:31.939Z,17.83
2022-08-14T17:11:10.793Z,17.15
2022-08-14T17:13:58.488Z,17.88
2022-08-14T17:16:37.904Z,17.55
2022-08-14T17:19:17.754Z,17.48
2022-08-14T17:21:49.064Z,17.00
2022-08-14T17:24:56.044Z,16.77
2022-08-14T17:27:10.422Z,17.48
2022-08-14T17:29:44.737Z,17.75
2022-08-14T17:32:30.044Z,17.40
2022-08-14T17:35:17.137Z,17.95
2022-08-14T17:37:55.651Z,17.13
2022-08-14T17:40:31.664Z,17.20
2022-08-14T17:43:02.038Z,17.23
2022-08-14T17:45:41.310Z,17.75
2022-08-14T17:49:13.847Z,17.00
2022-08-14T17:51:23.986Z,16.75
2022-08-14T17:54:02.776Z,16.80
2022-08-14T17:56:33.600Z,16.55
2022-08-14T17:59:06.041Z,16.90
2022-08-14T18:01:39.559Z,16.80
2022-08-14T18:04:28.437Z,16.83
2022-08-14T18:07:16.617Z,16.45
2022-08-14T18:09:57.080Z,16.67
2022-08-14T18:12:37.074Z,16.40
2022-08-14T18:15:16.554Z,17.15
2022-08-14T18:17:52.766Z,17.20
2022-08-14T18:21:41.309Z,17.95
2022-08-14T18:23:13.819Z,17.20
2022-08-14T18:25:52.555Z,17.55
2022-08-14T18:28:37.913Z,17.05
2022-08-14T18:31:42.296Z,16.98
2022-08-14T18:34:30.896Z,17.45
2022-08-14T18:37:09.669Z,16.75
2022-08-14T18:40:03.336Z,17.08
2022-08-14T18:42:35.228Z,17.30
2022-08-14T18:45:12.551Z,17.08
2022-08-14T18:48:06.585Z,17.98
2022-08-14T18:50:33.487Z,17.50
2022-08-14T18:53:10.828Z,16.95
2022-08-14T18:55:53.234Z,16.50
2022-08-14T18:58:31.748Z,17.95
2022-08-14T19:01:02.129Z,16.67
2022-08-14T19:03:34.182Z,16.77
2022-08-14T19:06:09.038Z,16.92
2022-08-14T19:08:47.822Z,16.70
2022-08-14T19:11:42.220Z,16.58
2022-08-14T19:16:43.094Z,16.45
2022-08-14T19:19:20.678Z,16.02
2022-08-14T19:21:56.955Z,16.90
2022-08-14T19:24:44.174Z,16.90
2022-08-14T19:27:26.250Z,16.48
2022-08-14T19:30:32.339Z,16.50
2022-08-14T19:33:03.660Z,16.38
2022-08-14T19:35:48.592Z,16.77
2022-08-14T19:38:53.903Z,17.83
2022-08-14T19:41:22.852Z,17.27
2022-08-14T19:43:56.867Z,16.85
2022-08-14T19:46:37.657Z,17.05
2022-08-14T19:49:06.256Z,16.17
2022-08-14T19:51:44.861Z,16.23
2022-08-14T19:54:13.479Z,16.70
2022-08-14T19:56:44.975Z,17.10
2022-08-14T19:59:19.023Z,16.30
2022-08-14T20:01:51.581Z,16.80
2022-08-14T20:04:46.767Z,15.98
2022-08-14T20:11:08.059Z,16.35
2022-08-14T20:13:32.277Z,15.98
2022-08-14T20:16:07.235Z,16.20
2022-08-14T20:18:50.103Z,16.17
2022-08-14T20:21:18.675Z,16.27
2022-08-14T20:23:48.139Z,16.17
2022-08-14T20:26:30.904Z,17.00
2022-08-14T20:29:04.938Z,16.80
2022-08-14T20:31:37.290Z,16.90
2022-08-14T20:34:24.280Z,16.95
2022-08-14T20:37:26.303Z,16.98
2022-08-14T20:39:55.673Z,16.45
2022-08-14T20:42:43.786Z,16.70
2022-08-14T20:45:24.907Z,16.38
2022-08-14T20:48:07.472Z,16.70
2022-08-14T20:50:36.804Z,16.48
2022-08-14T20:53:34.597Z,16.63
2022-08-14T20:56:28.565Z,16.73
2022-08-14T20:58:57.389Z,16.98
2022-08-14T21:01:24.447Z,17.15
2022-08-14T21:04:02.411Z,17.35
2022-08-14T21:07:23.939Z,17.15
2022-08-14T21:10:03.044Z,17.70
2022-08-14T21:12:33.813Z,17.25
2022-08-14T21:15:01.598Z,17.30
2022-08-14T21:17:30.206Z,17.67
2022-08-14T21:19:57.454Z,17.90
2022-08-14T21:22:26.973Z,18.52
2022-08-14T21:25:01.575Z,18.23
2022-08-14T21:27:29.262Z,18.08
2022-08-14T21:30:08.452Z,18.45
2022-08-14T21:32:50.283Z,18.30
2022-08-14T21:35:26.021Z,17.35
2022-08-14T21:37:53.952Z,17.98
2022-08-14T21:40:42.527Z,17.50
2022-08-14T21:43:20.899Z,17.83
2022-08-14T21:45:53.812Z,17.95
2022-08-14T21:48:29.839Z,18.00
2022-08-14T21:51:52.949Z,18.52
2022-08-14T21:53:59.189Z,18.33
2022-08-14T21:56:37.620Z,19.30
2022-08-14T21:59:09.970Z,18.52
2022-08-14T22:02:00.701Z,18.00
2022-08-14T22:04:32.890Z,18.15
2022-08-14T22:07:16.781Z,18.30
2022-08-14T22:09:55.365Z,18.65
2022-08-14T22:12:58.533Z,18.17
2022-08-14T22:15:14.634Z,18.23
2022-08-14T22:17:44.321Z,18.15
2022-08-14T22:20:12.575Z,18.20
2022-08-14T22:22:43.713Z,18.10
2022-08-14T22:25:17.484Z,17.92
2022-08-14T22:30:25.303Z,18.10
2022-08-14T22:32:57.571Z,18.35
2022-08-14T22:35:26.315Z,18.02
2022-08-14T22:38:01.918Z,17.98
2022-08-14T22:41:04.486Z,18.58
2022-08-14T22:43:31.723Z,17.58
2022-08-14T22:46:02.140Z,18.08
2022-08-14T22:48:30.224Z,18.25
2022-08-14T22:50:57.374Z,17.73
2022-08-14T22:53:29.140Z,17.80
2022-08-14T22:55:57.086Z,17.30
2022-08-14T22:58:31.778Z,18.05
2022-08-14T23:01:07.681Z,17.48
2022-08-14T23:03:40.511Z,18.58
2022-08-14T23:07:03.043Z,18.00
2022-08-14T23:09:35.024Z,18.00
2022-08-14T23:11:47.005Z,18.05
2022-08-14T23:14:24.034Z,17.77
2022-08-14T23:16:57.538Z,18.25
2022-08-14T23:19:33.774Z,17.93
2022-08-14T23:22:05.181Z,17.80
2022-08-14T23:24:32.488Z,18.00
2022-08-14T23:26:59.796Z,18.95
2022-08-14T23:29:27.183Z,17.77
2022-08-14T23:31:59.147Z,18.65
2022-08-14T23:34:29.466Z,18.45
2022-08-14T23:36:58.491Z,17.98
2022-08-14T23:39:34.571Z,17.75
2022-08-14T23:42:08.676Z,18.38
2022-08-14T23:44:37.745Z,17.88
2022-08-14T23:47:12.177Z,17.42
2022-08-14T23:50:00.447Z,17.88
2022-08-14T23:52:56.179Z,17.58
2022-08-14T23:55:16.626Z,18.02
2022-08-14T23:57:57.289Z,20.00
